createdAt,value
2018-08-31T00:00:42.287Z,9.63
2018-08-31T00:03:11.812Z,9.73
2018-08-31T00:05:54.399Z,9.67
2018-08-31T00:10:38.704Z,11.27
2018-08-31T00:13:07.836Z,10.90
2018-08-31T00:15:36.352Z,10.10
2018-08-31T00:18:04.684Z,9.67
2018-08-31T00:20:32.956Z,10.20
2018-08-31T00:23:01.209Z,10.23
2018-08-31T00:26:09.537Z,10.10
2018-08-31T00:28:49.670Z,10.07
2018-08-31T00:33:37.743Z,11.43
2018-08-31T00:36:14.932Z,10.03
2018-08-31T00:38:53.998Z,11.10
2018-08-31T00:43:55.113Z,9.80
2018-08-31T00:46:23.622Z,11.10
2018-08-31T00:48:51.901Z,11.33
2018-08-31T00:51:20.206Z,11.90
2018-08-31T00:53:48.457Z,11.90
2018-08-31T00:56:16.701Z,13.00
2018-08-31T00:58:44.973Z,12.37
2018-08-31T01:01:13.214Z,11.90
2018-08-31T01:03:41.448Z,13.47
2018-08-31T01:06:09.707Z,12.33
2018-08-31T01:08:37.976Z,11.40
2018-08-31T01:11:06.208Z,11.60
2018-08-31T01:13:34.452Z,11.33
2018-08-31T01:16:02.718Z,11.43
2018-08-31T01:18:30.952Z,12.43
2018-08-31T01:20:59.196Z,11.20
2018-08-31T01:23:27.415Z,12.00
2018-08-31T01:25:55.661Z,11.93
2018-08-31T01:28:23.905Z,12.20
2018-08-31T01:30:52.136Z,12.70
2018-08-31T01:33:20.381Z,12.00
2018-08-31T01:35:48.629Z,12.30
2018-08-31T01:38:16.875Z,12.73
2018-08-31T01:40:45.156Z,11.70
2018-08-31T01:43:13.405Z,11.07
2018-08-31T01:45:41.679Z,11.77
2018-08-31T01:48:09.909Z,12.57
2018-08-31T01:50:42.387Z,10.37
2018-08-31T01:53:10.652Z,12.63
2018-08-31T01:55:38.900Z,12.10
2018-08-31T01:58:07.156Z,13.47
2018-08-31T02:00:35.400Z,13.70
2018-08-31T02:03:03.656Z,13.45
2018-08-31T02:05:31.896Z,13.10
2018-08-31T02:08:00.184Z,12.82
2018-08-31T02:10:28.400Z,13.25
2018-08-31T02:12:56.635Z,12.60
2018-08-31T02:15:24.878Z,11.60
2018-08-31T02:17:53.123Z,11.50
2018-08-31T02:20:21.373Z,11.33
2018-08-31T02:22:49.600Z,12.43
2018-08-31T02:25:17.836Z,11.60
2018-08-31T02:27:46.077Z,12.30
2018-08-31T02:30:14.300Z,11.70
2018-08-31T02:32:42.544Z,11.47
2018-08-31T02:35:10.830Z,12.00
2018-08-31T02:37:39.075Z,10.67
2018-08-31T02:40:07.343Z,11.07
2018-08-31T02:42:35.584Z,11.87
2018-08-31T02:45:03.846Z,11.97
2018-08-31T02:47:32.098Z,12.50
2018-08-31T02:50:00.331Z,12.70
2018-08-31T02:52:28.579Z,13.70
2018-08-31T02:54:56.814Z,12.60
2018-08-31T02:57:25.049Z,12.17
2018-08-31T02:59:53.317Z,12.67
2018-08-31T03:02:21.589Z,11.80
2018-08-31T03:04:49.815Z,12.27
2018-08-31T03:07:18.056Z,11.47
2018-08-31T03:09:46.351Z,12.73
2018-08-31T03:12:14.628Z,13.50
2018-08-31T03:14:42.861Z,12.33
2018-08-31T03:17:11.110Z,13.23
2018-08-31T03:19:39.337Z,12.87
2018-08-31T03:22:07.564Z,12.60
2018-08-31T03:24:36.072Z,12.37
2018-08-31T03:27:04.312Z,13.70
2018-08-31T03:29:32.547Z,13.53
2018-08-31T03:32:00.796Z,14.70
2018-08-31T03:34:29.030Z,14.37
2018-08-31T03:36:57.293Z,14.50
2018-08-31T03:39:25.517Z,13.30
2018-08-31T03:41:53.797Z,12.33
2018-08-31T03:44:22.028Z,13.40
2018-08-31T03:46:50.273Z,14.50
2018-08-31T03:49:18.527Z,12.90
2018-08-31T03:51:46.769Z,14.90
2018-08-31T03:54:15.022Z,14.60
2018-08-31T03:56:43.247Z,14.03
2018-08-31T03:59:11.488Z,15.30
2018-08-31T04:01:39.717Z,16.03
2018-08-31T04:04:07.946Z,15.47
2018-08-31T04:06:36.186Z,14.27
2018-08-31T04:09:06.085Z,14.80
2018-08-31T04:11:34.317Z,13.90
2018-08-31T04:14:02.572Z,16.37
2018-08-31T04:16:30.805Z,17.63
2018-08-31T04:19:03.481Z,16.80
2018-08-31T04:21:31.882Z,16.00
2018-08-31T04:24:00.112Z,17.80
2018-08-31T04:26:28.353Z,16.10
2018-08-31T04:28:56.610Z,17.27
2018-08-31T04:31:24.880Z,18.47
2018-08-31T04:33:53.170Z,16.70
2018-08-31T04:36:21.464Z,18.40
2018-08-31T04:38:49.714Z,17.40
2018-08-31T04:41:17.976Z,16.60
2018-08-31T04:43:46.233Z,17.03
2018-08-31T04:46:14.508Z,17.80
2018-08-31T04:48:42.762Z,17.97
2018-08-31T04:51:11.003Z,17.80
2018-08-31T04:53:39.255Z,18.00
2018-08-31T04:56:07.499Z,18.33
2018-08-31T04:58:35.744Z,16.83
2018-08-31T05:01:03.976Z,17.17
2018-08-31T05:03:32.228Z,16.70
2018-08-31T05:06:00.459Z,17.57
2018-08-31T05:08:28.700Z,17.87
2018-08-31T05:10:56.949Z,16.93
2018-08-31T05:13:25.195Z,15.30
2018-08-31T05:15:53.456Z,15.10
2018-08-31T05:18:21.717Z,16.47
2018-08-31T05:20:49.974Z,16.87
2018-08-31T05:23:18.228Z,15.43
2018-08-31T05:25:46.480Z,16.70
2018-08-31T05:28:14.794Z,14.80
2018-08-31T05:30:43.061Z,15.20
2018-08-31T05:33:11.651Z,15.80
2018-08-31T05:35:39.892Z,15.40
2018-08-31T05:38:08.156Z,14.30
2018-08-31T05:40:36.395Z,15.60
2018-08-31T05:43:04.663Z,16.70
2018-08-31T05:45:32.920Z,16.43
2018-08-31T05:48:01.182Z,16.35
2018-08-31T05:50:29.416Z,15.80
2018-08-31T05:52:57.664Z,16.87
2018-08-31T05:55:25.907Z,18.10
2018-08-31T05:57:54.153Z,19.70
2018-08-31T06:00:22.402Z,19.17
2018-08-31T06:02:50.656Z,19.57
2018-08-31T06:05:18.970Z,19.52
2018-08-31T06:07:47.220Z,17.77
2018-08-31T06:10:15.460Z,18.90
2018-08-31T06:12:43.685Z,19.35
2018-08-31T06:15:11.921Z,17.10
2018-08-31T06:17:40.201Z,18.13
2018-08-31T06:20:08.889Z,17.23
2018-08-31T06:22:37.157Z,17.27
2018-08-31T06:25:05.861Z,18.23
2018-08-31T06:27:34.102Z,19.23
2018-08-31T06:30:02.397Z,18.37
2018-08-31T06:32:30.684Z,18.50
2018-08-31T06:34:58.920Z,17.87
2018-08-31T06:37:27.157Z,18.23
2018-08-31T06:39:55.397Z,18.60
2018-08-31T06:42:23.639Z,17.95
2018-08-31T06:44:51.884Z,18.10
2018-08-31T06:47:20.133Z,18.43
2018-08-31T06:49:48.389Z,18.25
2018-08-31T06:52:16.645Z,18.52
2018-08-31T06:54:44.912Z,18.57
2018-08-31T06:57:13.189Z,17.37
2018-08-31T06:59:41.447Z,20.17
2018-08-31T07:02:09.707Z,20.43
2018-08-31T07:04:37.981Z,19.60
2018-08-31T07:07:06.191Z,19.48
2018-08-31T07:09:34.429Z,17.10
2018-08-31T07:12:02.664Z,18.43
2018-08-31T07:14:30.900Z,19.70
2018-08-31T07:16:59.141Z,19.73
2018-08-31T07:19:27.431Z,19.20
2018-08-31T07:21:55.676Z,18.55
2018-08-31T07:24:23.949Z,19.37
2018-08-31T07:26:52.404Z,18.98
2018-08-31T07:29:20.652Z,18.92
2018-08-31T07:31:48.929Z,19.92
2018-08-31T07:34:17.198Z,19.20
2018-08-31T07:36:45.478Z,18.60
2018-08-31T07:39:13.704Z,18.50
2018-08-31T07:41:41.961Z,17.90
2018-08-31T07:44:10.202Z,17.50
2018-08-31T07:46:38.441Z,18.85
2018-08-31T07:49:06.681Z,20.30
2018-08-31T07:51:34.940Z,20.10
2018-08-31T07:54:03.197Z,18.35
2018-08-31T07:56:31.444Z,19.25
2018-08-31T07:58:59.683Z,17.00
2018-08-31T08:01:27.928Z,18.15
2018-08-31T08:03:56.165Z,19.70
2018-08-31T08:06:24.428Z,18.17
2018-08-31T08:08:52.748Z,19.67
2018-08-31T08:11:20.980Z,17.87
2018-08-31T08:13:49.240Z,20.00
2018-08-31T08:16:17.480Z,19.32
2018-08-31T08:18:45.785Z,18.62
2018-08-31T08:21:14.047Z,18.60
2018-08-31T08:23:42.349Z,20.15
2018-08-31T08:26:10.588Z,21.60
2018-08-31T10:04:46.025Z,17.03
2018-08-31T10:07:14.280Z,18.53
2018-08-31T10:09:42.517Z,18.20
2018-08-31T10:12:10.768Z,18.90
2018-08-31T10:14:39.590Z,17.90
2018-08-31T10:17:07.832Z,17.60
2018-08-31T10:19:36.088Z,17.60
2018-08-31T10:22:04.353Z,16.50
2018-08-31T10:24:32.619Z,16.23
2018-08-31T10:27:00.868Z,14.57
2018-08-31T10:29:29.160Z,14.87
2018-08-31T10:31:57.409Z,13.97
2018-08-31T10:34:25.666Z,14.60
2018-08-31T10:36:53.936Z,14.33
2018-08-31T10:39:22.187Z,13.63
2018-08-31T10:41:50.564Z,15.57
2018-08-31T10:44:18.809Z,15.33
2018-08-31T10:46:47.029Z,14.70
2018-08-31T10:49:15.255Z,14.30
2018-08-31T10:51:43.516Z,14.50
2018-08-31T10:54:11.745Z,14.60
2018-08-31T10:56:39.982Z,14.67
2018-08-31T10:59:08.292Z,11.90
2018-08-31T11:01:36.643Z,11.67
2018-08-31T11:04:04.897Z,11.90
2018-08-31T11:06:33.129Z,11.03
2018-08-31T11:09:01.374Z,9.90
2018-08-31T11:11:29.614Z,10.83
2018-08-31T11:13:57.904Z,10.63
2018-08-31T11:16:26.130Z,9.30
2018-08-31T11:18:54.390Z,9.53
2018-08-31T11:21:22.619Z,10.17
2018-08-31T11:23:50.846Z,9.40
2018-08-31T11:26:19.092Z,10.30
2018-08-31T11:28:47.333Z,10.10
2018-08-31T11:31:15.568Z,8.57
2018-08-31T11:33:43.799Z,10.30
2018-08-31T11:36:12.029Z,12.07
2018-08-31T11:38:40.263Z,11.40
2018-08-31T11:41:08.506Z,10.13
2018-08-31T11:43:36.817Z,11.47
2018-08-31T11:46:05.092Z,12.40
2018-08-31T11:48:33.336Z,11.60
2018-08-31T11:51:01.844Z,11.80
2018-08-31T11:53:30.136Z,12.10
2018-08-31T11:55:58.371Z,12.90
2018-08-31T11:58:26.612Z,14.60
2018-08-31T12:00:55.162Z,13.20
2018-08-31T12:03:23.400Z,13.90
2018-08-31T12:05:51.705Z,14.77
2018-08-31T12:08:19.944Z,14.23
2018-08-31T12:10:48.201Z,12.17
2018-08-31T12:13:16.464Z,14.07
2018-08-31T12:15:44.711Z,13.40
2018-08-31T12:18:12.952Z,14.23
2018-08-31T12:20:41.188Z,13.93
2018-08-31T12:23:09.416Z,13.60
2018-08-31T12:25:37.637Z,15.50
2018-08-31T12:28:05.921Z,14.43
2018-08-31T12:30:34.168Z,15.27
2018-08-31T12:33:02.408Z,16.20
2018-08-31T12:35:30.636Z,16.77
2018-08-31T12:37:58.888Z,15.63
2018-08-31T12:40:27.148Z,16.23
2018-08-31T12:42:55.369Z,14.00
2018-08-31T12:45:23.619Z,14.20
2018-08-31T12:47:51.844Z,15.67
2018-08-31T12:50:20.073Z,15.10
2018-08-31T12:52:48.304Z,16.27
2018-08-31T12:55:16.589Z,15.50
2018-08-31T12:57:44.893Z,16.20
2018-08-31T13:00:13.211Z,14.77
2018-08-31T13:02:41.392Z,15.83
2018-08-31T13:05:09.645Z,15.60
2018-08-31T13:07:37.884Z,15.30
2018-08-31T13:10:06.407Z,16.10
2018-08-31T13:12:34.633Z,16.57
2018-08-31T13:15:02.870Z,16.57
2018-08-31T13:17:31.099Z,17.50
2018-08-31T13:19:59.379Z,15.27
2018-08-31T13:22:27.633Z,17.63
2018-08-31T13:24:55.864Z,16.90
2018-08-31T13:27:24.105Z,18.80
2018-08-31T13:29:52.369Z,18.00
2018-08-31T13:32:20.618Z,18.17
2018-08-31T13:34:48.840Z,17.90
2018-08-31T13:37:17.066Z,15.97
2018-08-31T13:39:45.304Z,16.53
2018-08-31T13:42:13.532Z,18.03
2018-08-31T13:44:41.764Z,15.57
2018-08-31T13:47:10.008Z,18.57
2018-08-31T13:49:38.256Z,19.37
2018-08-31T13:52:06.515Z,19.37
2018-08-31T13:54:34.769Z,20.77
2018-08-31T13:57:03.047Z,21.57
2018-08-31T13:59:31.284Z,20.30
2018-08-31T14:01:59.508Z,19.20
2018-08-31T14:04:27.788Z,20.57
2018-08-31T14:06:56.030Z,18.33
2018-08-31T14:09:24.256Z,18.60
2018-08-31T14:11:52.500Z,21.90
2018-08-31T14:14:20.743Z,23.70
2018-08-31T14:16:48.974Z,24.20
2018-08-31T14:19:17.224Z,26.42
2018-08-31T14:21:45.471Z,27.40
2018-08-31T14:24:13.725Z,28.07
2018-08-31T14:26:41.986Z,28.38
2018-08-31T14:29:10.306Z,25.70
2018-08-31T14:31:38.560Z,25.88
2018-08-31T14:34:07.013Z,23.80
2018-08-31T14:36:35.351Z,28.70
2018-08-31T14:39:04.319Z,28.42
2018-08-31T14:41:32.582Z,25.20
2018-08-31T14:44:00.830Z,21.50
2018-08-31T14:46:29.048Z,20.80
2018-08-31T14:48:57.281Z,21.77
2018-08-31T14:51:25.644Z,21.67
2018-08-31T14:53:53.877Z,20.90
2018-08-31T14:56:22.113Z,20.20
2018-08-31T14:58:50.350Z,22.80
2018-08-31T15:01:18.580Z,22.97
2018-08-31T15:03:46.849Z,23.80
2018-08-31T15:06:15.077Z,21.63
2018-08-31T15:08:43.331Z,20.77
2018-08-31T15:11:11.577Z,21.90
2018-08-31T15:13:39.813Z,22.13
2018-08-31T15:16:08.051Z,22.20
2018-08-31T15:18:36.332Z,23.10
2018-08-31T15:21:04.606Z,20.57
2018-08-31T15:23:32.859Z,20.60
2018-08-31T15:26:01.090Z,18.70
2018-08-31T15:28:29.348Z,21.70
2018-08-31T15:30:57.548Z,23.13
2018-08-31T15:33:25.813Z,19.30
2018-08-31T15:35:54.052Z,19.43
2018-08-31T15:38:22.291Z,18.80
2018-08-31T15:40:50.545Z,21.30
2018-08-31T15:43:18.764Z,17.60
2018-08-31T15:45:47.001Z,18.97
2018-08-31T15:48:15.229Z,21.00
2018-08-31T15:50:43.524Z,19.10
2018-08-31T15:53:11.724Z,19.20
2018-08-31T15:55:40.115Z,15.77
2018-08-31T15:58:08.393Z,15.30
2018-08-31T16:00:36.620Z,17.00
2018-08-31T16:03:04.876Z,15.70
2018-08-31T16:05:33.138Z,15.87
2018-08-31T16:08:01.383Z,16.60
2018-08-31T16:10:29.640Z,16.97
2018-08-31T16:12:57.889Z,16.27
2018-08-31T16:15:26.126Z,16.53
2018-08-31T16:17:54.348Z,16.80
2018-08-31T16:20:22.588Z,17.17
2018-08-31T16:22:50.859Z,17.90
2018-08-31T16:25:19.093Z,17.20
2018-08-31T16:27:47.538Z,16.97
2018-08-31T16:30:15.876Z,18.10
2018-08-31T16:32:44.172Z,17.90
2018-08-31T16:35:12.412Z,17.90
2018-08-31T16:37:40.656Z,18.27
2018-08-31T16:40:08.873Z,16.83
2018-08-31T16:42:37.247Z,17.70
2018-08-31T16:45:05.647Z,18.80
2018-08-31T16:47:33.879Z,17.57
2018-08-31T16:50:02.092Z,18.50
2018-08-31T16:52:30.337Z,17.93
2018-08-31T16:54:58.576Z,18.37
2018-08-31T16:57:26.945Z,17.37
2018-08-31T16:59:55.322Z,18.60
2018-08-31T17:02:23.552Z,18.80
2018-08-31T17:04:51.785Z,19.00
2018-08-31T17:07:20.009Z,19.87
2018-08-31T17:09:48.241Z,19.03
2018-08-31T17:12:16.608Z,20.00
2018-08-31T17:14:44.843Z,20.00
2018-08-31T17:17:13.096Z,17.97
2018-08-31T17:19:41.424Z,19.13
2018-08-31T17:22:09.752Z,17.80
2018-08-31T17:24:37.977Z,19.03
2018-08-31T17:27:11.610Z,17.30
2018-08-31T17:29:47.336Z,17.67
2018-08-31T17:32:21.333Z,19.20
2018-08-31T17:34:55.039Z,17.93
2018-08-31T17:37:28.667Z,17.77
2018-08-31T17:39:57.275Z,17.87
2018-08-31T17:42:26.799Z,17.60
2018-08-31T17:44:55.059Z,17.37
2018-08-31T17:47:23.304Z,19.00
2018-08-31T17:49:51.527Z,16.70
2018-08-31T17:52:19.775Z,18.10
2018-08-31T17:54:48.020Z,17.30
2018-08-31T17:57:16.271Z,19.07
2018-08-31T17:59:44.567Z,19.70
2018-08-31T18:02:12.834Z,17.73
2018-08-31T18:04:41.064Z,19.33
2018-08-31T18:07:09.289Z,18.63
2018-08-31T18:09:37.597Z,17.30
2018-08-31T18:12:05.780Z,18.10
2018-08-31T18:14:34.040Z,17.40
2018-08-31T18:17:02.368Z,18.13
2018-08-31T18:19:30.615Z,18.23
2018-08-31T18:21:58.840Z,18.77
2018-08-31T18:24:27.083Z,19.43
2018-08-31T18:26:55.310Z,17.37
2018-08-31T18:29:23.561Z,18.37
2018-08-31T18:31:51.800Z,17.87
2018-08-31T18:34:20.044Z,17.10
2018-08-31T18:36:48.280Z,19.13
2018-08-31T18:39:17.366Z,19.30
2018-08-31T18:41:45.593Z,18.67
2018-08-31T18:44:13.829Z,18.70
2018-08-31T18:46:42.071Z,19.60
2018-08-31T18:49:10.296Z,19.17
2018-08-31T18:51:38.524Z,19.83
2018-08-31T18:54:06.759Z,19.23
2018-08-31T18:56:34.987Z,19.37
2018-08-31T18:59:03.245Z,18.70
2018-08-31T19:01:31.531Z,18.23
2018-08-31T19:03:59.772Z,16.87
2018-08-31T19:06:28.020Z,17.43
2018-08-31T19:08:56.260Z,20.60
2018-08-31T19:11:24.496Z,19.77
2018-08-31T19:13:52.733Z,17.30
2018-08-31T19:16:20.981Z,19.10
2018-08-31T19:18:49.233Z,18.67
2018-08-31T19:21:17.475Z,18.20
2018-08-31T19:23:45.706Z,19.50
2018-08-31T19:26:14.237Z,19.23
2018-08-31T19:28:42.474Z,20.87
2018-08-31T19:31:10.709Z,17.33
2018-08-31T19:33:38.973Z,18.80
2018-08-31T19:36:07.212Z,17.83
2018-08-31T19:38:35.452Z,19.27
2018-08-31T19:41:03.751Z,18.37
2018-08-31T19:43:31.938Z,16.17
2018-08-31T19:46:00.177Z,16.57
2018-08-31T19:48:28.409Z,16.60
2018-08-31T19:50:56.665Z,16.37
2018-08-31T19:53:24.889Z,16.97
2018-08-31T19:55:53.124Z,15.97
2018-08-31T19:58:21.362Z,17.80
2018-08-31T20:00:49.623Z,18.13
2018-08-31T20:03:17.893Z,18.97
2018-08-31T20:05:46.138Z,17.20
2018-08-31T20:08:14.369Z,17.47
2018-08-31T20:10:42.619Z,16.33
2018-08-31T20:13:11.184Z,16.80
2018-08-31T20:15:39.578Z,16.43
2018-08-31T20:18:07.801Z,17.23
2018-08-31T20:20:36.141Z,16.10
2018-08-31T20:23:04.384Z,15.67
2018-08-31T20:25:32.628Z,14.73
2018-08-31T20:28:00.856Z,16.67
2018-08-31T20:30:29.121Z,14.83
2018-08-31T20:32:57.357Z,16.37
2018-08-31T20:35:25.604Z,18.50
2018-08-31T20:37:53.841Z,17.37
2018-08-31T20:40:22.071Z,17.83
2018-08-31T20:42:50.332Z,17.83
2018-08-31T20:45:18.580Z,16.30
2018-08-31T20:47:46.823Z,20.03
2018-08-31T20:50:15.064Z,17.03
2018-08-31T20:52:43.304Z,17.93
2018-08-31T20:55:11.563Z,18.67
2018-08-31T20:57:39.787Z,16.03
2018-08-31T21:00:08.062Z,17.20
2018-08-31T21:02:36.297Z,17.20
2018-08-31T21:05:04.587Z,17.47
2018-08-31T21:07:32.820Z,19.13
2018-08-31T21:10:01.100Z,17.53
2018-08-31T21:12:29.343Z,20.97
2018-08-31T21:14:57.586Z,17.47
2018-08-31T21:17:25.825Z,18.60
2018-08-31T21:19:54.058Z,19.00
2018-08-31T21:22:22.298Z,21.63
2018-08-31T21:24:50.523Z,20.93
2018-08-31T21:27:18.753Z,20.30
2018-08-31T21:29:47.013Z,21.00
2018-08-31T21:32:15.347Z,20.37
2018-08-31T21:34:43.480Z,21.10
2018-08-31T21:37:11.716Z,22.53
2018-08-31T21:39:39.940Z,21.70
2018-08-31T21:42:08.197Z,21.63
2018-08-31T21:44:36.416Z,21.30
2018-08-31T21:47:04.654Z,20.60
2018-08-31T21:49:32.956Z,19.33
2018-08-31T21:52:01.151Z,19.60
2018-08-31T21:54:29.745Z,19.37
2018-08-31T21:56:57.979Z,19.77
2018-08-31T21:59:26.218Z,19.80
2018-08-31T22:01:55.700Z,18.73
2018-08-31T22:04:24.481Z,19.00
2018-08-31T22:06:52.970Z,19.00
2018-08-31T22:09:21.227Z,21.03
2018-08-31T22:11:49.459Z,19.27
2018-08-31T22:14:17.688Z,19.90
2018-08-31T22:16:45.925Z,21.43
2018-08-31T22:19:14.153Z,19.70
2018-08-31T22:21:42.387Z,20.97
2018-08-31T22:24:10.617Z,19.20
2018-08-31T22:26:38.876Z,19.50
2018-08-31T22:29:07.111Z,20.73
2018-08-31T22:31:35.362Z,21.47
2018-08-31T22:34:03.620Z,21.93
2018-08-31T22:36:31.868Z,23.13
2018-08-31T22:39:00.129Z,25.33
2018-08-31T22:41:28.366Z,24.73
2018-08-31T22:43:56.600Z,24.30
2018-08-31T22:46:24.889Z,23.87
2018-08-31T22:48:53.355Z,23.05
2018-08-31T22:51:22.168Z,21.15
2018-08-31T22:53:50.741Z,22.52
2018-08-31T22:56:19.112Z,22.40
2018-08-31T22:58:47.369Z,21.82
2018-08-31T23:01:15.619Z,21.10
2018-08-31T23:03:43.964Z,20.70
2018-08-31T23:06:12.324Z,20.57
2018-08-31T23:08:40.582Z,22.75
2018-08-31T23:11:10.114Z,22.25
2018-08-31T23:13:40.144Z,21.70
2018-08-31T23:16:08.501Z,22.07
2018-08-31T23:18:36.770Z,20.75
2018-08-31T23:21:05.325Z,22.60
2018-08-31T23:23:39.015Z,24.10
2018-08-31T23:26:07.256Z,22.62
2018-08-31T23:28:35.516Z,23.60
2018-08-31T23:31:03.759Z,22.30
2018-08-31T23:33:32.017Z,21.80
2018-08-31T23:36:00.262Z,21.30
2018-08-31T23:38:28.509Z,23.17
2018-08-31T23:40:56.763Z,21.63
2018-08-31T23:43:25.011Z,23.32
2018-08-31T23:45:53.280Z,23.35
2018-08-31T23:48:21.521Z,23.70
2018-08-31T23:50:49.755Z,23.10
2018-08-31T23:53:18.033Z,22.00
2018-08-31T23:55:46.276Z,23.05
2018-08-31T23:58:14.566Z,23.77
